Portada
METAR-TAF:

METAR-TAF

Aeroports :

Nakhon Ratchasima, Tailàndia

latitud: 14-56-58N, longitud: 102-18-45E, altitud: 233 m

Observació

L'informe es va fer fa 39 minuts, a les 06:00 UTC
Vent 2 kt amb direcció variable
Temperatura 35°C
Humitat 71%
Pressió 1010 hPa
Visibilitat 10 km o més
Escasses núvols a una alçada de 3000 ft

METAR: VTUQ 080600Z VRB02KT 9999 FEW030 35/29 Q1010 NOSIG

Hora: 13:39 (06:39 UTC)

Pronòstic

L'informe es va fer fa 1 hora i 39 minuts, a les 05:00 UTC
Pronòstic vàlid del 08 a les 06 UTC al 09 a les 06 UTC
Vent 5 kt del Sud/Sud-Oest
Visibilitat: 9000 m
Escasses núvols a una alçada de 3000 ft
Temporalment
l' 08 a les 09 UTC al 08 a les 13 UTC
Vent 15 kt amb direcció variable
Visibilitat: 4500 m
Escasses núvols a una alçada de 1800 ft, Cumulonimbus.
tempesta, pluja

TAF: VTUQ 080500Z 0806/0906 20005KT 9000 FEW030 TEMPO 0809/0813 VRB15KT 4500 TSRA FEW018CB

Observacions i pronòstics meteorològics de més de 4000 aeroports (METAR i TAF).

Les estacions disponibles són els punts grocs i vermells al mapa.

Posi el ratolí al punt desitjat per veure el nom de l'estació.

Feu clic per veure les observacions i els pronòstics meteorològics.

Per canviar el mapa: feu clic els botons verds amb una creu de color negre per apropar; al botó verd amb un guió per allunyar la imatge; o en les fletxes verdes per a mapes adjacents.


METAR-TAF: